Time;durP1;ratioP1;P1;durP2;ratioP2;P2;SDS_P1;SDS_P2;PMS_P1;PMS_P2;Temp;Humidity;BMP_temperature;BMP_pressure;BME280_temperature;BME280_humidity;BME280_pressure;Samples;Min_cycle;Max_cycle;Signal;HPM_P1;HPM_P2
2023/07/21 00:00:19;;;;;;;5.22;3.75;;;21.60;99.90;;;;;;5057980;28;20535;-75
2023/07/21 00:02:45;;;;;;;5.00;3.38;;;21.60;99.90;;;;;;5058012;28;20029;-75
2023/07/21 00:05:13;;;;;;;4.97;3.13;;;21.60;99.90;;;;;;5056750;28;20029;-74
2023/07/21 00:07:39;;;;;;;4.93;2.88;;;21.50;99.90;;;;;;5057611;28;20435;-74
2023/07/21 00:10:07;;;;;;;7.93;3.17;;;21.50;99.90;;;;;;5057733;28;20025;-75
2023/07/21 00:12:40;;;;;;;4.45;2.97;;;21.50;99.90;;;;;;5057609;28;20386;-74
2023/07/21 00:15:07;;;;;;;3.58;2.95;;;21.50;99.90;;;;;;5057513;28;20064;-73
2023/07/21 00:17:34;;;;;;;6.68;3.25;;;21.50;99.90;;;;;;5057394;28;20090;-74
2023/07/21 00:20:09;;;;;;;5.00;3.20;;;21.50;99.90;;;;;;5057849;28;20083;-75
2023/07/21 00:22:35;;;;;;;4.35;2.78;;;21.40;99.90;;;;;;5056203;28;20025;-74
2023/07/21 00:25:05;;;;;;;6.53;2.95;;;21.50;99.90;;;;;;5057346;28;20066;-76
2023/07/21 00:27:31;;;;;;;4.28;2.80;;;21.40;99.90;;;;;;5055977;28;20029;-74
2023/07/21 00:29:56;;;;;;;3.20;2.35;;;21.40;99.90;;;;;;5057131;28;20029;-75
2023/07/21 00:32:22;;;;;;;3.70;2.63;;;21.40;99.90;;;;;;5057518;28;20025;-75
2023/07/21 00:34:50;;;;;;;4.60;3.03;;;21.30;99.90;;;;;;5057530;28;20067;-74
2023/07/21 00:37:17;;;;;;;4.55;2.47;;;21.30;99.90;;;;;;5056486;28;20028;-74
2023/07/21 00:39:44;;;;;;;3.72;2.67;;;21.30;99.90;;;;;;5055567;28;20088;-74
2023/07/21 00:42:10;;;;;;;5.88;2.72;;;21.30;99.90;;;;;;5057371;28;20033;-74
2023/07/21 00:44:36;;;;;;;7.72;3.22;;;21.30;99.90;;;;;;5056909;28;20056;-74
2023/07/21 00:47:03;;;;;;;3.35;2.38;;;21.30;99.90;;;;;;5055883;28;20025;-74
2023/07/21 00:49:29;;;;;;;4.10;2.35;;;21.30;99.90;;;;;;5056809;28;20382;-74
2023/07/21 00:51:54;;;;;;;3.72;2.78;;;21.30;99.90;;;;;;5055752;28;20024;-75
2023/07/21 00:54:20;;;;;;;4.47;2.00;;;21.30;99.90;;;;;;5056884;28;20382;-74
2023/07/21 00:56:47;;;;;;;4.72;2.53;;;21.20;99.90;;;;;;5057039;28;20028;-74
2023/07/21 00:59:13;;;;;;;4.28;2.15;;;21.20;99.90;;;;;;5055626;28;20063;-75
2023/07/21 01:01:39;;;;;;;3.33;2.13;;;21.20;99.90;;;;;;5056800;28;20523;-74
2023/07/21 01:04:05;;;;;;;6.45;2.30;;;21.20;99.90;;;;;;5056759;28;20104;-74
2023/07/21 01:06:31;;;;;;;3.90;2.30;;;21.20;99.90;;;;;;5055570;28;20056;-74
2023/07/21 01:08:59;;;;;;;3.63;2.17;;;21.20;99.90;;;;;;5056634;28;20025;-73
2023/07/21 01:11:26;;;;;;;3.85;1.95;;;21.20;99.90;;;;;;5056736;28;20044;-74
2023/07/21 01:13:54;;;;;;;3.47;2.25;;;21.10;99.90;;;;;;5056446;28;20501;-74
2023/07/21 01:16:25;;;;;;;3.30;2.22;;;21.10;99.90;;;;;;5056862;28;20392;-74
2023/07/21 01:18:52;;;;;;;3.13;1.90;;;21.00;99.90;;;;;;5056630;28;20481;-74
2023/07/21 01:21:36;;;;;;;3.00;1.90;;;21.00;99.90;;;;;;5056700;28;20025;-75
2023/07/21 01:24:15;;;;;;;4.50;2.20;;;21.00;99.90;;;;;;5056298;28;20031;-74
2023/07/21 01:26:42;;;;;;;3.17;2.08;;;20.90;99.90;;;;;;5056567;28;20074;-75
2023/07/21 01:29:08;;;;;;;5.00;2.63;;;20.90;99.90;;;;;;5056444;28;20043;-74
2023/07/21 01:31:35;;;;;;;3.08;2.20;;;20.80;99.90;;;;;;5055155;28;20085;-74
2023/07/21 01:34:03;;;;;;;3.70;2.35;;;20.70;99.90;;;;;;5056622;28;20074;-74
2023/07/21 01:36:30;;;;;;;2.97;2.10;;;20.70;99.90;;;;;;5056521;28;20389;-75
2023/07/21 01:38:57;;;;;;;5.35;2.40;;;20.60;99.90;;;;;;5056362;28;20428;-74
2023/07/21 01:41:24;;;;;;;7.50;2.78;;;20.60;99.90;;;;;;5056360;28;20025;-74
2023/07/21 01:43:53;;;;;;;3.78;2.28;;;20.60;99.90;;;;;;5056560;28;20052;-74
2023/07/21 01:46:18;;;;;;;3.65;2.30;;;20.50;99.90;;;;;;5056390;28;20025;-74
2023/07/21 01:48:46;;;;;;;3.85;2.28;;;20.50;99.90;;;;;;5059808;28;20025;-75
2023/07/21 01:51:14;;;;;;;7.50;2.78;;;20.40;99.90;;;;;;5060269;28;20056;-74
2023/07/21 01:53:41;;;;;;;5.15;2.42;;;20.40;99.90;;;;;;5060425;28;20032;-73
2023/07/21 01:56:16;;;;;;;2.83;1.90;;;20.40;99.90;;;;;;5060198;28;20036;-73
2023/07/21 01:58:43;;;;;;;4.57;2.60;;;20.30;99.90;;;;;;5060371;28;20029;-74
2023/07/21 02:01:10;;;;;;;3.63;2.40;;;20.30;99.90;;;;;;5060087;28;20393;-73
2023/07/21 02:03:36;;;;;;;3.17;1.80;;;20.30;99.90;;;;;;5058786;28;20025;-73
2023/07/21 02:06:16;;;;;;;6.03;2.63;;;20.30;99.90;;;;;;5060035;28;20028;-74
2023/07/21 02:08:42;;;;;;;3.70;2.17;;;20.20;99.90;;;;;;5060125;28;20544;-74
2023/07/21 02:11:07;;;;;;;3.65;2.10;;;20.20;99.90;;;;;;5058589;28;20389;-73
2023/07/21 02:13:33;;;;;;;3.50;2.17;;;20.10;99.90;;;;;;5059849;28;20017;-74
2023/07/21 02:15:59;;;;;;;4.07;2.30;;;20.00;99.90;;;;;;5059800;28;20021;-73
2023/07/21 02:18:25;;;;;;;3.72;2.72;;;20.00;99.90;;;;;;5059941;28;20021;-75
2023/07/21 02:20:50;;;;;;;3.22;2.13;;;20.00;99.90;;;;;;5059633;28;20436;-73
2023/07/21 02:23:16;;;;;;;5.18;2.42;;;19.90;99.90;;;;;;5059719;28;20510;-74
2023/07/21 02:25:44;;;;;;;2.90;2.03;;;19.90;99.90;;;;;;5059609;28;20021;-75
2023/07/21 02:28:10;;;;;;;4.05;2.20;;;19.90;99.90;;;;;;5059568;28;20024;-74
2023/07/21 02:30:35;;;;;;;5.68;2.47;;;19.90;99.90;;;;;;5059508;28;20021;-75
2023/07/21 02:33:01;;;;;;;3.85;2.38;;;19.80;99.90;;;;;;5058384;28;20031;-73
2023/07/21 02:35:27;;;;;;;5.55;2.22;;;19.80;99.90;;;;;;5058048;28;20055;-74
2023/07/21 02:37:53;;;;;;;3.22;2.53;;;19.70;99.90;;;;;;5059640;28;20048;-73
2023/07/21 02:40:19;;;;;;;4.20;2.25;;;19.70;99.90;;;;;;5059150;28;20021;-73
2023/07/21 02:42:44;;;;;;;3.42;2.17;;;19.70;99.90;;;;;;5059486;28;20024;-75
2023/07/21 02:45:11;;;;;;;2.83;1.80;;;19.70;99.90;;;;;;5059281;28;20021;-73
2023/07/21 02:47:37;;;;;;;5.95;2.63;;;19.60;99.90;;;;;;5058197;28;20465;-74
2023/07/21 02:50:08;;;;;;;3.20;2.00;;;19.60;99.90;;;;;;5059299;28;20498;-74
2023/07/21 02:52:34;;;;;;;3.33;1.90;;;19.60;99.90;;;;;;5059349;28;20029;-76
2023/07/21 02:55:00;;;;;;;4.25;2.13;;;19.50;99.90;;;;;;5057389;28;20502;-75
2023/07/21 02:57:25;;;;;;;6.93;2.42;;;19.50;99.90;;;;;;5059159;28;20029;-74
2023/07/21 02:59:52;;;;;;;5.40;2.15;;;19.40;99.90;;;;;;5058005;28;20031;-73
2023/07/21 03:02:18;;;;;;;3.60;2.10;;;19.40;99.90;;;;;;5058817;28;20524;-74
2023/07/21 03:04:45;;;;;;;4.32;2.60;;;19.40;99.90;;;;;;5058650;28;20024;-76
2023/07/21 03:07:11;;;;;;;4.75;2.08;;;19.30;99.90;;;;;;5058541;28;20028;-73
2023/07/21 03:09:37;;;;;;;4.13;2.20;;;19.30;99.90;;;;;;5057090;28;20028;-73
2023/07/21 03:12:03;;;;;;;4.18;2.17;;;19.40;99.90;;;;;;5058742;28;20025;-74
2023/07/21 03:14:28;;;;;;;4.03;2.13;;;19.30;99.90;;;;;;5057233;28;20040;-72
2023/07/21 03:16:54;;;;;;;3.90;2.10;;;19.30;99.90;;;;;;5058877;28;20031;-73
2023/07/21 03:19:20;;;;;;;7.03;2.28;;;19.20;99.90;;;;;;5058947;28;20112;-74
2023/07/21 03:21:45;;;;;;;4.18;2.40;;;19.20;99.90;;;;;;5057314;28;20037;-74
2023/07/21 03:24:11;;;;;;;3.88;2.40;;;19.20;99.90;;;;;;5058427;28;20032;-73
2023/07/21 03:26:37;;;;;;;6.95;2.40;;;19.20;99.90;;;;;;5058584;28;20033;-74
2023/07/21 03:29:03;;;;;;;5.07;2.53;;;19.10;99.90;;;;;;5056984;28;20075;-73
2023/07/21 03:31:29;;;;;;;6.90;2.25;;;19.10;99.90;;;;;;5058644;28;20108;-72
2023/07/21 03:33:54;;;;;;;5.97;2.55;;;19.10;99.90;;;;;;5058499;28;20052;-73
2023/07/21 03:36:20;;;;;;;4.38;1.90;;;19.00;99.90;;;;;;5058462;28;20116;-72
2023/07/21 03:38:46;;;;;;;3.05;2.00;;;19.00;99.90;;;;;;5058181;28;20112;-72
2023/07/21 03:41:12;;;;;;;5.38;2.58;;;19.00;99.90;;;;;;5057038;28;20060;-72
2023/07/21 03:43:38;;;;;;;7.15;2.55;;;19.00;99.90;;;;;;5058136;28;20070;-72
2023/07/21 03:46:06;;;;;;;10.43;2.53;;;19.00;99.90;;;;;;5056938;28;20033;-72
2023/07/21 03:48:32;;;;;;;3.47;2.33;;;18.90;99.90;;;;;;5056762;28;20020;-73
2023/07/21 03:51:06;;;;;;;3.70;2.30;;;18.90;99.90;;;;;;5058049;28;20025;-72
2023/07/21 03:53:32;;;;;;;3.42;2.08;;;18.80;99.90;;;;;;5057840;28;20036;-73
2023/07/21 03:55:58;;;;;;;9.05;2.45;;;18.70;99.90;;;;;;5056663;28;20472;-73
2023/07/21 03:58:24;;;;;;;3.80;2.30;;;18.70;99.90;;;;;;5056534;28;20025;-73
2023/07/21 04:00:50;;;;;;;3.10;2.15;;;18.70;99.90;;;;;;5057802;28;20477;-73
2023/07/21 04:03:19;;;;;;;5.78;2.35;;;18.60;99.90;;;;;;5057993;28;20043;-73
2023/07/21 04:05:45;;;;;;;6.05;2.05;;;18.60;99.90;;;;;;5057957;28;20088;-73
2023/07/21 04:08:13;;;;;;;5.97;2.42;;;18.50;99.90;;;;;;5046650;28;20513;-72
2023/07/21 04:10:41;;;;;;;5.78;2.40;;;18.50;99.90;;;;;;5057827;28;20021;-72
2023/07/21 04:13:07;;;;;;;3.83;2.30;;;18.50;99.90;;;;;;5056488;28;20017;-73
2023/07/21 04:15:33;;;;;;;3.25;2.10;;;18.40;99.90;;;;;;5057334;28;20082;-73
2023/07/21 04:17:59;;;;;;;3.50;2.35;;;18.40;99.90;;;;;;5057877;28;20025;-73
2023/07/21 04:20:25;;;;;;;4.80;2.53;;;18.30;99.90;;;;;;5057469;28;20017;-72
2023/07/21 04:22:51;;;;;;;3.97;2.35;;;18.30;99.90;;;;;;5057365;28;20025;-72
2023/07/21 04:25:18;;;;;;;4.93;2.42;;;18.30;99.90;;;;;;5057024;28;20064;-73
2023/07/21 04:27:50;;;;;;;5.28;2.45;;;18.30;99.90;;;;;;5057392;28;20113;-73
2023/07/21 04:30:16;;;;;;;5.43;2.55;;;18.30;99.90;;;;;;5057493;28;20040;-72
2023/07/21 04:32:42;;;;;;;6.18;2.45;;;18.20;99.90;;;;;;5056048;28;20056;-72
2023/07/21 04:35:08;;;;;;;6.32;2.33;;;18.20;99.90;;;;;;5057218;28;20036;-73
2023/07/21 04:37:37;;;;;;;4.30;2.33;;;18.20;99.90;;;;;;5057478;28;20024;-72
2023/07/21 04:40:05;;;;;;;4.80;2.42;;;18.30;99.90;;;;;;5055489;28;20021;-72
2023/07/21 04:42:32;;;;;;;5.00;2.35;;;18.30;99.90;;;;;;5057402;28;20024;-72
2023/07/21 04:44:58;;;;;;;7.28;2.90;;;18.30;99.90;;;;;;5056858;28;20024;-73
2023/07/21 04:47:24;;;;;;;6.95;2.80;;;18.30;99.90;;;;;;5057320;28;20492;-72
2023/07/21 04:49:50;;;;;;;4.70;2.13;;;18.30;99.90;;;;;;5056866;28;20025;-72
2023/07/21 04:52:16;;;;;;;9.18;3.05;;;18.20;99.90;;;;;;5057090;28;20017;-72
2023/07/21 04:54:44;;;;;;;3.20;2.38;;;18.30;99.90;;;;;;5056538;28;21367;-72
2023/07/21 04:57:10;;;;;;;9.25;2.97;;;18.20;99.90;;;;;;5055786;28;20112;-72
2023/07/21 04:59:36;;;;;;;5.30;2.10;;;18.30;99.90;;;;;;5056620;28;20104;-73
2023/07/21 05:02:01;;;;;;;4.88;3.65;;;18.30;99.90;;;;;;5056964;28;20055;-72
2023/07/21 05:04:27;;;;;;;6.10;2.30;;;18.30;99.90;;;;;;5056741;28;20075;-72
2023/07/21 05:06:53;;;;;;;5.00;2.45;;;18.30;99.90;;;;;;5055280;28;20021;-72
2023/07/21 05:09:19;;;;;;;6.03;2.65;;;18.30;99.90;;;;;;5056504;28;20029;-72
2023/07/21 05:11:46;;;;;;;4.68;2.40;;;18.30;99.90;;;;;;5055296;28;20025;-73
2023/07/21 05:14:13;;;;;;;3.60;2.22;;;18.30;99.90;;;;;;5056320;28;20053;-73
2023/07/21 05:16:39;;;;;;;4.93;2.83;;;18.40;99.90;;;;;;5056854;28;20024;-73
2023/07/21 05:19:04;;;;;;;5.95;2.38;;;18.40;99.90;;;;;;5056541;28;20025;-73
2023/07/21 05:21:30;;;;;;;4.25;2.63;;;18.40;99.90;;;;;;5056562;28;20065;-72
2023/07/21 05:23:56;;;;;;;7.53;2.53;;;18.40;99.90;;;;;;5056143;28;20033;-73
2023/07/21 05:26:21;;;;;;;5.80;2.45;;;18.40;99.90;;;;;;5055209;28;20023;-73
2023/07/21 05:28:49;;;;;;;3.15;2.55;;;18.40;99.90;;;;;;5056534;28;20043;-72
2023/07/21 05:31:16;;;;;;;7.80;2.70;;;18.40;99.90;;;;;;5056534;28;20096;-72
2023/07/21 05:33:42;;;;;;;5.38;2.50;;;18.40;99.90;;;;;;5055201;28;20096;-72
2023/07/21 05:36:09;;;;;;;8.55;3.00;;;18.40;99.90;;;;;;5056516;28;20439;-72
2023/07/21 05:38:37;;;;;;;4.15;2.35;;;18.50;99.90;;;;;;5055099;28;20036;-73
2023/07/21 05:41:03;;;;;;;5.80;2.20;;;18.50;99.90;;;;;;5056451;28;20032;-73
2023/07/21 05:43:29;;;;;;;4.35;2.00;;;18.50;99.90;;;;;;5056266;28;20024;-72
2023/07/21 05:45:54;;;;;;;4.75;2.15;;;18.50;99.90;;;;;;5056572;28;20025;-74
2023/07/21 05:48:20;;;;;;;3.85;2.00;;;18.50;99.90;;;;;;5056206;28;20041;-72
2023/07/21 05:50:46;;;;;;;4.90;2.50;;;18.60;99.90;;;;;;5056537;28;20048;-74
2023/07/21 05:53:12;;;;;;;3.00;2.30;;;18.60;99.90;;;;;;5056046;28;20021;-73
2023/07/21 05:55:42;;;;;;;3.03;1.67;;;18.60;99.90;;;;;;5056448;28;20493;-72
2023/07/21 05:58:08;;;;;;;7.88;2.80;;;18.60;99.90;;;;;;5056036;28;20019;-77
2023/07/21 06:00:36;;;;;;;3.38;2.17;;;18.70;99.90;;;;;;5055864;28;20437;-76
2023/07/21 06:03:03;;;;;;;5.63;2.50;;;18.70;99.90;;;;;;5056207;28;20021;-75
2023/07/21 06:05:29;;;;;;;6.20;2.08;;;18.80;99.90;;;;;;5054997;28;20021;-77
2023/07/21 06:07:55;;;;;;;5.88;2.30;;;18.90;99.90;;;;;;5054801;28;20028;-76
2023/07/21 06:10:21;;;;;;;7.07;2.45;;;18.90;99.90;;;;;;5056156;28;20490;-76
2023/07/21 06:12:48;;;;;;;3.58;2.42;;;19.00;99.90;;;;;;5055994;28;20010;-76
2023/07/21 06:15:14;;;;;;;10.70;4.07;;;19.00;99.90;;;;;;5056107;28;20472;-75
2023/07/21 06:17:39;;;;;;;4.25;2.30;;;18.90;99.90;;;;;;5054738;28;20025;-76
2023/07/21 06:20:07;;;;;;;7.53;2.58;;;19.00;99.90;;;;;;5056396;28;20052;-77
2023/07/21 06:22:33;;;;;;;7.57;2.53;;;19.00;99.90;;;;;;5054525;28;20028;-76
2023/07/21 06:24:59;;;;;;;4.28;2.30;;;18.90;99.90;;;;;;5054644;28;20104;-76
2023/07/21 06:27:25;;;;;;;6.82;1.92;;;18.90;99.90;;;;;;5055766;28;20036;-76
2023/07/21 06:29:50;;;;;;;3.60;2.25;;;18.90;99.90;;;;;;5054635;28;20025;-76
2023/07/21 06:32:16;;;;;;;3.65;2.03;;;19.00;99.90;;;;;;5054574;28;20465;-77
2023/07/21 06:34:42;;;;;;;5.47;2.38;;;19.00;99.90;;;;;;5057207;28;20044;-76
2023/07/21 06:37:07;;;;;;;5.95;2.80;;;18.90;99.90;;;;;;5059513;28;20043;-76
2023/07/21 06:39:33;;;;;;;3.15;2.40;;;18.90;99.90;;;;;;5059279;28;20021;-76
2023/07/21 06:41:59;;;;;;;6.50;2.53;;;18.90;99.90;;;;;;5059621;28;20029;-76
2023/07/21 06:44:25;;;;;;;4.55;2.28;;;18.90;99.90;;;;;;5059258;28;20029;-76
2023/07/21 06:46:52;;;;;;;5.75;2.42;;;18.80;99.90;;;;;;5059290;28;20086;-75
2023/07/21 06:49:18;;;;;;;4.88;2.42;;;18.90;99.90;;;;;;5059351;28;20522;-76
2023/07/21 06:51:43;;;;;;;3.45;2.22;;;19.10;99.90;;;;;;5054284;28;20108;-76
2023/07/21 06:54:09;;;;;;;3.38;2.17;;;19.10;99.90;;;;;;5056120;28;20108;-75
2023/07/21 06:56:35;;;;;;;5.72;2.47;;;19.10;99.90;;;;;;5051874;28;20378;-75
2023/07/21 06:59:01;;;;;;;4.65;2.42;;;19.20;99.90;;;;;;5058919;28;20025;-75
2023/07/21 07:01:27;;;;;;;4.57;2.28;;;19.30;99.90;;;;;;5059085;28;20036;-75
2023/07/21 07:03:53;;;;;;;7.82;2.38;;;19.30;99.90;;;;;;5058829;28;20020;-76
2023/07/21 07:06:19;;;;;;;6.57;2.25;;;19.30;99.90;;;;;;5057767;28;20025;-76
2023/07/21 07:08:44;;;;;;;5.45;2.20;;;19.50;99.90;;;;;;5058496;28;20028;-74
2023/07/21 07:11:11;;;;;;;6.78;2.63;;;19.70;99.90;;;;;;5057609;28;20021;-74
2023/07/21 07:13:37;;;;;;;3.35;2.22;;;19.80;99.90;;;;;;5050742;28;20022;-76
2023/07/21 07:16:03;;;;;;;5.70;2.30;;;20.00;99.90;;;;;;5052534;28;20025;-74
2023/07/21 07:18:29;;;;;;;3.55;2.25;;;19.90;99.90;;;;;;5050720;28;20025;-75
2023/07/21 07:20:56;;;;;;;5.90;2.33;;;19.90;99.90;;;;;;5056154;28;20029;-75
2023/07/21 07:23:23;;;;;;;7.95;2.63;;;19.90;99.90;;;;;;5057522;28;20021;-77
2023/07/21 07:25:50;;;;;;;3.78;2.60;;;20.00;99.90;;;;;;5046938;28;20428;-72
2023/07/21 07:28:18;;;;;;;4.05;1.80;;;19.90;99.90;;;;;;5046043;28;20033;-72
2023/07/21 07:30:45;;;;;;;4.95;2.55;;;20.00;99.90;;;;;;5045842;28;20408;-73
2023/07/21 07:33:10;;;;;;;6.38;2.15;;;20.20;99.90;;;;;;5046927;28;20040;-76
2023/07/21 07:35:37;;;;;;;6.75;2.55;;;20.20;99.90;;;;;;5046359;28;92885;-73
2023/07/21 07:38:02;;;;;;;5.25;1.95;;;20.20;99.90;;;;;;5040442;28;20544;-73
2023/07/21 07:40:28;;;;;;;6.80;2.25;;;20.20;99.90;;;;;;5047599;28;20123;-72
2023/07/21 07:42:55;;;;;;;3.40;2.00;;;20.30;99.90;;;;;;5050351;28;20067;-73
2023/07/21 07:45:20;;;;;;;3.45;1.95;;;20.50;99.90;;;;;;5051270;28;20032;-75
2023/07/21 07:47:46;;;;;;;4.38;2.00;;;20.40;99.90;;;;;;5050767;28;20013;-73
2023/07/21 07:50:12;;;;;;;5.30;1.90;;;20.40;99.90;;;;;;5044269;28;20037;-75
2023/07/21 07:52:41;;;;;;;3.22;1.83;;;20.50;99.90;;;;;;5045243;28;20029;-74
2023/07/21 07:55:07;;;;;;;3.40;1.98;;;20.50;99.90;;;;;;5047373;28;20116;-73
2023/07/21 07:57:33;;;;;;;7.75;1.77;;;20.50;99.90;;;;;;5041692;28;20045;-72
2023/07/21 07:59:59;;;;;;;3.35;1.73;;;20.30;99.90;;;;;;5054566;28;20021;-72
2023/07/21 08:02:25;;;;;;;7.53;2.05;;;20.40;99.90;;;;;;5058119;28;20017;-73
2023/07/21 08:04:50;;;;;;;4.70;2.00;;;20.50;99.90;;;;;;5057563;28;20382;-73
2023/07/21 08:07:18;;;;;;;2.85;1.83;;;20.60;99.90;;;;;;5056738;28;20104;-73
2023/07/21 08:09:43;;;;;;;3.40;1.70;;;20.70;99.90;;;;;;5057382;28;20043;-72
2023/07/21 08:12:09;;;;;;;2.95;1.80;;;20.90;99.90;;;;;;5049054;28;20017;-72
2023/07/21 08:14:35;;;;;;;6.28;2.05;;;21.10;99.90;;;;;;5056445;28;20133;-72
2023/07/21 08:17:04;;;;;;;5.32;1.70;;;21.10;99.90;;;;;;5057785;28;20092;-73
2023/07/21 08:19:32;;;;;;;4.00;2.25;;;21.30;99.90;;;;;;5057513;28;20032;-73
2023/07/21 08:22:06;;;;;;;3.92;2.05;;;21.40;99.90;;;;;;5057643;28;20025;-72
2023/07/21 08:24:33;;;;;;;3.47;1.90;;;21.40;99.90;;;;;;5053337;28;20025;-72
2023/07/21 08:26:59;;;;;;;4.82;1.80;;;21.40;99.90;;;;;;5056115;28;20025;-71
2023/07/21 08:29:26;;;;;;;4.45;1.95;;;21.40;99.90;;;;;;5055870;28;20099;-72
2023/07/21 08:31:52;;;;;;;5.07;1.80;;;21.30;99.90;;;;;;5057559;28;20103;-70
2023/07/21 08:34:17;;;;;;;3.10;1.52;;;21.50;99.90;;;;;;5056155;28;20055;-72
2023/07/21 08:36:43;;;;;;;3.78;1.63;;;21.80;99.90;;;;;;5055926;28;20021;-71
2023/07/21 08:39:09;;;;;;;5.88;2.10;;;21.90;99.90;;;;;;5057293;28;20503;-72
2023/07/21 08:41:42;;;;;;;3.45;1.70;;;21.70;99.90;;;;;;5057154;28;20393;-72
2023/07/21 08:44:09;;;;;;;4.95;1.80;;;21.60;99.90;;;;;;5057362;28;20052;-73
2023/07/21 08:46:34;;;;;;;3.97;1.90;;;21.70;99.90;;;;;;5057072;28;20048;-71
2023/07/21 08:49:01;;;;;;;4.80;2.30;;;21.80;99.90;;;;;;5057193;28;20481;-72
2023/07/21 08:51:27;;;;;;;4.32;1.92;;;22.00;99.90;;;;;;5054200;28;20032;-71
2023/07/21 08:53:52;;;;;;;6.68;1.80;;;22.10;99.90;;;;;;5046482;28;20476;-72
2023/07/21 08:56:18;;;;;;;4.03;1.80;;;22.20;99.90;;;;;;5056701;28;20028;-71
2023/07/21 08:58:44;;;;;;;5.32;1.88;;;22.20;99.90;;;;;;5030760;28;20033;-71
2023/07/21 09:01:09;;;;;;;2.92;1.58;;;22.20;99.90;;;;;;5044680;28;20025;-72
2023/07/21 09:03:35;;;;;;;4.95;2.10;;;22.10;99.90;;;;;;5053857;28;20112;-69
2023/07/21 09:06:01;;;;;;;4.35;2.30;;;21.90;99.90;;;;;;5045581;28;20607;-71
2023/07/21 09:08:33;;;;;;;6.22;2.15;;;22.10;99.90;;;;;;5045176;28;20036;-71
2023/07/21 09:11:01;;;;;;;5.55;2.10;;;22.30;99.90;;;;;;5049783;28;20017;-71
2023/07/21 09:13:27;;;;;;;3.50;1.58;;;22.40;99.90;;;;;;5042101;28;20049;-71
2023/07/21 09:15:55;;;;;;;5.43;1.90;;;22.40;99.90;;;;;;5055403;28;20588;-72
2023/07/21 09:18:32;;;;;;;5.47;1.80;;;22.40;99.90;;;;;;5040727;28;20025;-71
2023/07/21 09:20:58;;;;;;;2.33;1.65;;;22.60;99.90;;;;;;5045435;28;20096;-71
2023/07/21 09:23:26;;;;;;;4.65;1.90;;;22.60;99.90;;;;;;5047333;28;20061;-71
2023/07/21 09:25:56;;;;;;;4.35;1.92;;;22.80;99.90;;;;;;5048046;28;20040;-71
2023/07/21 09:28:42;;;;;;;;;;;23.10;99.90;;;;;;5040367;28;20046;-72
2023/07/21 09:31:08;;;;;;;3.38;1.70;;;23.40;99.90;;;;;;5048583;28;19995;-71
2023/07/21 09:33:38;;;;;;;3.47;1.80;;;23.00;99.90;;;;;;5044471;28;20498;-71
2023/07/21 09:36:15;;;;;;;4.05;1.63;;;22.90;99.90;;;;;;5041408;28;20541;-71
2023/07/21 09:38:42;;;;;;;3.00;1.50;;;23.00;99.90;;;;;;5040102;28;20423;-71
2023/07/21 09:41:14;;;;;;;3.53;1.60;;;23.10;99.90;;;;;;5039640;28;20044;-71
2023/07/21 09:43:41;;;;;;;7.57;2.13;;;23.10;99.90;;;;;;5048602;28;20496;-74
2023/07/21 09:46:07;;;;;;;105.43;7.38;;;23.10;99.90;;;;;;5054603;28;20025;-71
2023/07/21 09:48:36;;;;;;;6.00;1.63;;;23.20;99.90;;;;;;5053090;28;20048;-72
2023/07/21 09:51:04;;;;;;;3.30;1.65;;;23.40;99.90;;;;;;5048363;28;20021;-73
2023/07/21 09:53:38;;;;;;;6.10;2.33;;;23.70;99.90;;;;;;5051354;28;20081;-72
2023/07/21 09:56:05;;;;;;;2.38;1.40;;;23.80;99.90;;;;;;5050659;28;20025;-72
2023/07/21 09:58:34;;;;;;;5.55;1.83;;;23.90;99.90;;;;;;5052696;28;20074;-73
2023/07/21 10:01:03;;;;;;;4.45;2.20;;;24.10;99.90;;;;;;5047340;28;20512;-73
2023/07/21 10:03:31;;;;;;;2.97;1.50;;;24.20;99.90;;;;;;5056231;28;20017;-72
2023/07/21 10:05:59;;;;;;;4.70;1.40;;;24.30;99.90;;;;;;5056365;28;20481;-73
2023/07/21 10:08:31;;;;;;;5.10;1.48;;;24.30;99.90;;;;;;5055447;28;20493;-72
2023/07/21 10:10:58;;;;;;;4.57;1.60;;;24.40;99.90;;;;;;5047747;28;20033;-72
2023/07/21 10:13:28;;;;;;;6.57;1.90;;;24.40;99.90;;;;;;5048816;28;20071;-73
2023/07/21 10:16:07;;;;;;;3.13;1.30;;;24.20;99.90;;;;;;5048393;28;20030;-72
2023/07/21 10:18:33;;;;;;;3.40;1.80;;;24.00;99.90;;;;;;5051407;28;20025;-72
2023/07/21 10:20:59;;;;;;;3.97;1.58;;;23.80;99.90;;;;;;5052605;28;20033;-72
2023/07/21 10:23:35;;;;;;;3.53;1.70;;;23.60;99.90;;;;;;5042228;28;20029;-72
2023/07/21 10:26:01;;;;;;;4.90;1.73;;;23.90;99.90;;;;;;5049333;28;20017;-71
2023/07/21 10:28:30;;;;;;;3.03;1.80;;;24.10;99.90;;;;;;5051262;28;20036;-73
2023/07/21 10:31:21;;;;;;;4.72;1.50;;;23.90;99.90;;;;;;5052223;28;20024;-72
2023/07/21 10:34:12;;;;;;;5.82;1.45;;;23.90;99.90;;;;;;5052830;28;20405;-73
2023/07/21 10:36:52;;;;;;;4.35;1.55;;;23.90;99.90;;;;;;5044183;28;20041;-72
2023/07/21 10:39:22;;;;;;;2.75;1.38;;;24.10;99.90;;;;;;5049874;28;20029;-72
2023/07/21 10:42:02;;;;;;;2.90;1.47;;;24.30;99.90;;;;;;5052009;28;20199;-72
2023/07/21 10:44:33;;;;;;;3.92;1.60;;;24.50;99.90;;;;;;5050420;28;20473;-72
2023/07/21 10:46:58;;;;;;;;;;;24.50;99.90;;;;;;5053751;28;20032;-70
2023/07/21 10:49:24;;;;;;;3.92;1.60;;;24.40;99.90;;;;;;5047586;28;19909;-72
2023/07/21 10:51:50;;;;;;;2.40;1.33;;;24.20;99.90;;;;;;5050477;28;20029;-73
2023/07/21 10:54:17;;;;;;;6.65;2.15;;;24.40;99.90;;;;;;5048658;28;20473;-74
2023/07/21 10:56:48;;;;;;;4.03;1.50;;;24.50;99.90;;;;;;5048117;28;20059;-73
2023/07/21 10:59:15;;;;;;;;;;;24.70;99.90;;;;;;5051441;28;20389;-71
2023/07/21 11:01:44;;;;;;;2.42;1.35;;;24.50;99.90;;;;;;5044576;28;19911;-71
2023/07/21 11:04:11;;;;;;;2.85;1.45;;;24.60;99.90;;;;;;5047843;28;20393;-71
2023/07/21 11:06:42;;;;;;;2.75;1.50;;;24.70;99.90;;;;;;5050241;28;20024;-71
2023/07/21 11:09:14;;;;;;;3.65;1.80;;;24.80;99.90;;;;;;5047195;28;20082;-70
2023/07/21 11:11:45;;;;;;;2.45;1.10;;;24.70;99.90;;;;;;5050142;28;20017;-70
2023/07/21 11:14:12;;;;;;;5.18;1.73;;;24.60;99.90;;;;;;5047822;28;20049;-70
2023/07/21 11:16:52;;;;;;;3.25;1.48;;;24.90;99.90;;;;;;5042473;28;20109;-71
2023/07/21 11:19:18;;;;;;;3.25;1.48;;;25.00;99.90;;;;;;5045646;28;20028;-71
2023/07/21 11:21:46;;;;;;;3.33;1.45;;;25.10;99.90;;;;;;5044521;28;20061;-71
2023/07/21 11:24:16;;;;;;;3.72;1.67;;;25.10;99.90;;;;;;5046595;28;20021;-71
2023/07/21 11:26:42;;;;;;;4.57;1.55;;;25.20;99.90;;;;;;5048229;28;20489;-70
2023/07/21 11:29:08;;;;;;;5.47;1.30;;;25.30;99.90;;;;;;5047123;28;20029;-70
2023/07/21 11:31:37;;;;;;;2.40;1.20;;;25.50;99.90;;;;;;5051084;28;20023;-70
2023/07/21 11:34:03;;;;;;;2.20;1.13;;;25.60;99.70;;;;;;5046322;28;20013;-69
2023/07/21 11:36:33;;;;;;;5.07;1.63;;;25.60;99.70;;;;;;5049322;28;20020;-70
2023/07/21 11:39:10;;;;;;;2.40;1.20;;;25.30;99.20;;;;;;5046628;28;20021;-70
2023/07/21 11:41:39;;;;;;;3.95;2.47;;;25.60;99.90;;;;;;5046625;28;20029;-71
2023/07/21 11:44:09;;;;;;;3.20;1.30;;;26.00;99.80;;;;;;5047429;28;20442;-71
2023/07/21 11:46:36;;;;;;;3.63;1.30;;;26.00;98.50;;;;;;5047145;28;20025;-70
2023/07/21 11:49:10;;;;;;;1.95;1.20;;;25.80;98.50;;;;;;5043714;28;20039;-70
2023/07/21 11:51:48;;;;;;;3.72;1.45;;;25.70;99.00;;;;;;5039917;28;20096;-70
2023/07/21 11:54:23;;;;;;;3.33;1.60;;;25.40;99.80;;;;;;5050247;28;20036;-70
2023/07/21 11:56:51;;;;;;;6.68;1.40;;;25.30;99.20;;;;;;5047134;28;20705;-70
2023/07/21 11:59:18;;;;;;;2.90;1.35;;;25.50;99.50;;;;;;5048244;28;20099;-71
2023/07/21 12:01:45;;;;;;;8.05;1.30;;;25.60;99.00;;;;;;5047888;28;20029;-70
2023/07/21 12:04:11;;;;;;;3.70;1.38;;;25.60;98.60;;;;;;5046189;28;20025;-70
2023/07/21 12:06:38;;;;;;;2.88;1.02;;;25.50;99.40;;;;;;5051807;28;20353;-72
2023/07/21 12:09:06;;;;;;;5.22;1.73;;;25.50;99.20;;;;;;5045305;28;20029;-68
2023/07/21 12:11:33;;;;;;;2.58;1.50;;;25.10;99.40;;;;;;5044174;28;20025;-69
2023/07/21 12:13:59;;;;;;;5.75;1.40;;;24.80;99.10;;;;;;5041866;28;20072;-72
2023/07/21 12:16:25;;;;;;;3.00;1.63;;;24.80;99.70;;;;;;5044415;28;20024;-69
2023/07/21 12:18:51;;;;;;;2.92;1.33;;;24.80;99.90;;;;;;5045080;28;20028;-69
2023/07/21 12:21:17;;;;;;;2.20;1.30;;;24.90;99.90;;;;;;5040046;28;20029;-69
2023/07/21 12:23:45;;;;;;;1.77;1.13;;;25.30;99.90;;;;;;5045230;28;20029;-69
2023/07/21 12:26:11;;;;;;;4.78;1.50;;;25.60;99.70;;;;;;5047230;28;20029;-69
2023/07/21 12:28:37;;;;;;;2.67;1.27;;;25.60;99.20;;;;;;5047525;28;20351;-69
2023/07/21 12:31:03;;;;;;;6.72;1.48;;;25.70;98.30;;;;;;5048461;28;20500;-68
2023/07/21 12:33:29;;;;;;;2.47;1.40;;;25.60;99.20;;;;;;5048282;28;20092;-70
2023/07/21 12:35:55;;;;;;;3.95;1.40;;;25.40;99.40;;;;;;5044274;28;20055;-70
2023/07/21 12:38:20;;;;;;;2.65;1.17;;;25.30;99.50;;;;;;5047070;28;20127;-70
2023/07/21 12:40:47;;;;;;;7.25;1.30;;;25.00;99.50;;;;;;5044311;28;20018;-69
2023/07/21 12:43:12;;;;;;;2.00;1.27;;;24.80;99.90;;;;;;5047073;28;20025;-70
2023/07/21 12:45:39;;;;;;;3.00;1.60;;;24.80;99.90;;;;;;5046330;28;20072;-69
2023/07/21 12:48:05;;;;;;;1.75;1.30;;;24.80;99.90;;;;;;5047418;28;20022;-72